createdAt,value
2019-02-02T00:00:40.146Z,1.19
2019-02-02T00:01:46.900Z,1.18
2019-02-02T00:02:52.952Z,1.13
2019-02-02T00:03:58.913Z,1.14
2019-02-02T00:05:07.562Z,1.10
2019-02-02T00:06:13.383Z,1.17
2019-02-02T00:07:19.357Z,1.13
2019-02-02T00:08:25.574Z,1.18
2019-02-02T00:09:31.820Z,1.24
2019-02-02T00:10:37.977Z,1.23
2019-02-02T00:11:44.077Z,1.19
2019-02-02T00:12:50.491Z,1.17
2019-02-02T00:13:56.759Z,1.16
2019-02-02T00:15:03.108Z,1.14
2019-02-02T00:16:09.362Z,1.08
2019-02-02T00:17:15.403Z,1.09
2019-02-02T00:18:21.365Z,1.18
2019-02-02T00:19:27.559Z,1.26
2019-02-02T00:20:33.696Z,1.30
2019-02-02T00:21:40.093Z,1.34
2019-02-02T00:22:46.363Z,1.32
2019-02-02T00:23:52.734Z,1.30
2019-02-02T00:24:58.984Z,1.31
2019-02-02T00:26:05.649Z,1.27
2019-02-02T00:27:11.491Z,1.30
2019-02-02T00:28:17.689Z,1.31
2019-02-02T00:29:23.590Z,1.32
2019-02-02T00:30:29.867Z,1.35
2019-02-02T00:31:36.086Z,1.32
2019-02-02T00:32:42.182Z,1.32
2019-02-02T00:33:48.308Z,1.27
2019-02-02T00:34:54.143Z,1.22
2019-02-02T00:36:00.158Z,1.26
2019-02-02T00:37:06.271Z,1.29
2019-02-02T00:38:12.509Z,1.27
2019-02-02T00:39:18.691Z,1.29
2019-02-02T00:40:25.077Z,1.33
2019-02-02T00:41:31.490Z,1.31
2019-02-02T00:42:37.595Z,1.31
2019-02-02T00:43:43.522Z,1.24
2019-02-02T00:44:49.442Z,1.26
2019-02-02T00:45:56.475Z,1.28
2019-02-02T00:47:02.583Z,1.25
2019-02-02T00:48:08.404Z,1.26
2019-02-02T00:49:14.679Z,1.28
2019-02-02T00:50:20.778Z,1.27
2019-02-02T00:51:27.066Z,1.31
2019-02-02T00:52:33.446Z,1.27
2019-02-02T00:53:39.573Z,1.25
2019-02-02T00:54:45.642Z,1.29
2019-02-02T00:55:51.738Z,1.37
2019-02-02T00:56:58.625Z,1.40
2019-02-02T00:58:06.151Z,1.42
2019-02-02T00:59:12.328Z,1.39
2019-02-02T01:00:19.604Z,1.40
2019-02-02T01:01:25.680Z,1.36
2019-02-02T01:02:31.930Z,1.38
2019-02-02T01:03:38.146Z,1.38
2019-02-02T01:04:44.364Z,1.41
2019-02-02T01:05:50.497Z,1.40
2019-02-02T01:06:57.328Z,1.36
2019-02-02T01:08:03.569Z,1.41
2019-02-02T01:09:12.080Z,1.41
2019-02-02T01:10:23.346Z,1.42
2019-02-02T01:11:29.298Z,1.42
2019-02-02T01:12:35.212Z,1.41
2019-02-02T01:13:41.222Z,1.42
2019-02-02T01:14:47.048Z,1.45
2019-02-02T01:15:52.736Z,1.48
2019-02-02T01:16:58.971Z,1.54
2019-02-02T01:18:05.684Z,1.58
2019-02-02T01:19:12.033Z,1.58
2019-02-02T01:20:19.007Z,1.60
2019-02-02T01:21:24.935Z,1.59
2019-02-02T01:22:30.947Z,1.66
2019-02-02T01:23:37.042Z,1.68
2019-02-02T01:24:43.248Z,1.61
2019-02-02T01:25:49.493Z,1.62
2019-02-02T01:26:56.290Z,1.62
2019-02-02T01:28:05.357Z,1.62
2019-02-02T01:29:10.488Z,1.66
2019-02-02T01:30:23.120Z,1.66
2019-02-02T01:31:29.328Z,1.69
2019-02-02T01:32:35.508Z,1.68
2019-02-02T01:33:41.612Z,1.78
2019-02-02T01:34:47.739Z,1.75
2019-02-02T01:35:54.082Z,1.82
2019-02-02T01:37:00.125Z,1.77
2019-02-02T01:38:06.262Z,1.78
2019-02-02T01:39:12.356Z,1.79
2019-02-02T01:40:26.361Z,1.83
2019-02-02T01:41:32.592Z,1.88
2019-02-02T01:42:38.715Z,1.82
2019-02-02T01:43:44.979Z,1.85
2019-02-02T01:44:51.117Z,1.85
2019-02-02T01:45:57.429Z,1.81
2019-02-02T01:47:03.587Z,1.84
2019-02-02T01:48:09.701Z,1.85
2019-02-02T01:49:15.814Z,1.84
2019-02-02T01:50:25.148Z,1.81
2019-02-02T01:51:31.375Z,1.86
2019-02-02T01:52:37.548Z,1.88
2019-02-02T01:53:43.717Z,1.91
2019-02-02T01:54:49.895Z,1.90
2019-02-02T01:55:56.072Z,1.90
2019-02-02T01:57:02.210Z,1.94
2019-02-02T01:58:16.368Z,1.90
2019-02-02T01:59:16.305Z,1.85
2019-02-02T02:00:32.220Z,1.83
2019-02-02T02:01:58.203Z,1.81
2019-02-02T02:03:05.269Z,1.85
2019-02-02T02:04:11.400Z,1.84
2019-02-02T02:05:17.513Z,1.91
2019-02-02T02:06:23.707Z,1.89
2019-02-02T02:07:29.853Z,1.87
2019-02-02T02:08:36.481Z,1.88
2019-02-02T02:09:42.879Z,1.89
2019-02-02T02:10:49.047Z,1.84
2019-02-02T02:11:55.028Z,1.90
2019-02-02T02:13:01.091Z,1.96
2019-02-02T02:14:07.434Z,1.98
2019-02-02T02:15:17.316Z,2.00
2019-02-02T02:16:23.770Z,2.08
2019-02-02T02:17:29.922Z,2.02
2019-02-02T02:18:36.359Z,1.97
2019-02-02T02:19:42.600Z,1.95
2019-02-02T02:20:49.032Z,1.94
2019-02-02T02:21:55.018Z,1.92
2019-02-02T02:23:01.041Z,1.98
2019-02-02T02:24:07.374Z,1.98
2019-02-02T02:25:19.553Z,2.02
2019-02-02T02:26:25.799Z,2.04
2019-02-02T02:27:31.911Z,1.99
2019-02-02T02:28:37.992Z,1.97
2019-02-02T02:29:44.477Z,2.01
2019-02-02T02:30:50.581Z,2.00
2019-02-02T02:31:56.794Z,2.01
2019-02-02T02:33:03.612Z,2.04
2019-02-02T02:34:09.732Z,1.94
2019-02-02T02:35:15.732Z,1.94
2019-02-02T02:36:21.693Z,2.05
2019-02-02T02:37:27.779Z,2.04
2019-02-02T02:38:33.776Z,2.08
2019-02-02T02:39:39.717Z,2.09
2019-02-02T02:40:45.556Z,2.06
2019-02-02T02:41:51.544Z,2.04
2019-02-02T02:42:57.640Z,2.04
2019-02-02T02:44:04.233Z,2.04
2019-02-02T02:45:12.585Z,2.03
2019-02-02T02:46:18.790Z,2.05
2019-02-02T02:47:25.103Z,2.03
2019-02-02T02:48:31.188Z,2.06
2019-02-02T02:49:37.604Z,2.08
2019-02-02T02:50:43.806Z,2.11
2019-02-02T02:51:49.926Z,2.14
2019-02-02T02:52:56.296Z,2.09
2019-02-02T02:54:02.464Z,2.15
2019-02-02T02:55:14.062Z,2.17
2019-02-02T02:56:20.224Z,2.16
2019-02-02T02:57:26.647Z,2.18
2019-02-02T02:58:40.827Z,2.21
2019-02-02T02:59:40.979Z,2.21
2019-02-02T03:00:47.432Z,2.22
2019-02-02T03:01:53.786Z,2.26
2019-02-02T03:02:59.600Z,2.26
2019-02-02T03:04:05.998Z,2.22
2019-02-02T03:05:12.831Z,2.20
2019-02-02T03:06:19.009Z,2.19
2019-02-02T03:07:25.099Z,2.22
2019-02-02T03:08:31.363Z,2.15
2019-02-02T03:09:37.785Z,2.17
2019-02-02T03:10:44.397Z,2.15
2019-02-02T03:11:50.578Z,2.11
2019-02-02T03:12:57.151Z,2.11
2019-02-02T03:14:03.612Z,2.12
2019-02-02T03:15:17.123Z,2.22
2019-02-02T03:16:23.392Z,2.22
2019-02-02T03:17:29.740Z,2.21
2019-02-02T03:18:37.241Z,2.24
2019-02-02T03:19:43.472Z,2.24
2019-02-02T03:20:49.741Z,2.22
2019-02-02T03:21:57.564Z,2.24
2019-02-02T03:23:03.779Z,2.14
2019-02-02T03:24:11.255Z,2.20
2019-02-02T03:25:25.930Z,2.12
2019-02-02T03:26:32.114Z,2.21
2019-02-02T03:27:38.438Z,2.19
2019-02-02T03:28:53.072Z,2.20
2019-02-02T03:29:52.681Z,2.12
2019-02-02T03:30:58.576Z,2.04
2019-02-02T03:32:05.568Z,2.08
2019-02-02T03:33:11.511Z,2.08
2019-02-02T03:34:17.992Z,2.14
2019-02-02T03:35:25.138Z,2.23
2019-02-02T03:36:31.024Z,2.20
2019-02-02T03:37:37.273Z,2.24
2019-02-02T03:38:43.458Z,2.18
2019-02-02T03:39:50.211Z,2.23
2019-02-02T03:40:56.361Z,2.19
2019-02-02T03:42:02.504Z,2.23
2019-02-02T03:43:08.604Z,2.24
2019-02-02T03:44:14.768Z,2.18
2019-02-02T03:45:23.740Z,2.22
2019-02-02T03:46:31.200Z,2.19
2019-02-02T03:47:37.279Z,2.18
2019-02-02T03:48:43.393Z,2.13
2019-02-02T03:49:49.625Z,2.23
2019-02-02T03:50:55.993Z,2.18
2019-02-02T03:52:02.271Z,2.15
2019-02-02T03:53:08.376Z,2.17
2019-02-02T03:54:14.553Z,2.19
2019-02-02T03:55:20.814Z,2.23
2019-02-02T03:56:26.961Z,2.26
2019-02-02T03:57:33.431Z,2.32
2019-02-02T03:58:39.603Z,2.30
2019-02-02T03:59:45.826Z,2.33
2019-02-02T04:00:51.973Z,2.35
2019-02-02T04:01:58.684Z,2.34
2019-02-02T04:03:05.991Z,2.36
2019-02-02T04:04:12.363Z,2.34
2019-02-02T04:05:23.221Z,2.37
2019-02-02T04:06:29.364Z,2.42
2019-02-02T04:07:35.561Z,2.37
2019-02-02T04:08:41.884Z,2.33
2019-02-02T04:09:47.719Z,2.35
2019-02-02T04:10:53.783Z,2.30
2019-02-02T04:11:59.892Z,2.29
2019-02-02T04:13:05.853Z,2.36
2019-02-02T04:14:12.014Z,2.37
2019-02-02T04:15:19.495Z,2.35
2019-02-02T04:16:25.599Z,2.37
2019-02-02T04:17:31.674Z,2.36
2019-02-02T04:18:37.860Z,2.42
2019-02-02T04:19:44.165Z,2.41
2019-02-02T04:20:49.999Z,2.43
2019-02-02T04:21:55.665Z,2.41
2019-02-02T04:23:01.390Z,2.37
2019-02-02T04:24:07.572Z,2.36
2019-02-02T04:25:13.744Z,2.34
2019-02-02T04:26:19.472Z,2.32
2019-02-02T04:27:25.491Z,2.34
2019-02-02T04:28:31.622Z,2.40
2019-02-02T04:29:37.638Z,2.43
2019-02-02T04:30:43.789Z,2.44
2019-02-02T04:31:49.723Z,2.44
2019-02-02T04:32:55.724Z,2.48
2019-02-02T04:34:01.574Z,2.48
2019-02-02T04:35:11.319Z,2.51
2019-02-02T04:36:17.568Z,2.51
2019-02-02T04:37:23.706Z,2.51
2019-02-02T04:38:29.804Z,2.51
2019-02-02T04:39:35.714Z,2.51
2019-02-02T04:40:41.672Z,2.51
2019-02-02T04:41:47.324Z,2.49
2019-02-02T04:42:53.352Z,2.50
2019-02-02T04:43:59.569Z,2.53
2019-02-02T04:45:08.725Z,2.49
2019-02-02T04:46:14.826Z,2.56
2019-02-02T04:47:21.276Z,2.48
2019-02-02T04:48:27.312Z,2.56
2019-02-02T04:49:33.252Z,2.60
2019-02-02T04:50:39.396Z,2.56
2019-02-02T04:51:45.783Z,2.50
2019-02-02T04:52:52.263Z,2.55
2019-02-02T04:53:58.618Z,2.55
2019-02-02T04:55:07.320Z,2.54
2019-02-02T04:56:13.184Z,2.56
2019-02-02T04:57:20.300Z,2.50
2019-02-02T04:58:26.449Z,2.54
2019-02-02T04:59:32.668Z,2.61
2019-02-02T05:00:38.948Z,2.56
2019-02-02T05:01:45.073Z,2.52
2019-02-02T05:02:51.108Z,2.53
2019-02-02T05:03:56.845Z,2.60
2019-02-02T05:05:02.643Z,2.65
2019-02-02T05:06:08.953Z,2.65
2019-02-02T05:07:15.177Z,2.68
2019-02-02T05:08:21.251Z,2.64
2019-02-02T05:09:27.076Z,2.65
2019-02-02T05:10:32.773Z,2.56
2019-02-02T05:11:38.515Z,2.56
2019-02-02T05:12:44.540Z,2.57
2019-02-02T05:13:50.909Z,2.55
2019-02-02T05:14:57.362Z,2.53
2019-02-02T05:16:03.463Z,2.62
2019-02-02T05:17:09.570Z,2.68
2019-02-02T05:18:16.213Z,2.71
2019-02-02T05:19:22.315Z,2.67
2019-02-02T05:20:28.485Z,2.70
2019-02-02T05:21:34.598Z,2.61
2019-02-02T05:22:40.850Z,2.58
2019-02-02T05:23:46.669Z,2.60
2019-02-02T05:24:53.092Z,2.63
2019-02-02T05:25:59.253Z,2.64
2019-02-02T05:27:05.883Z,2.59
2019-02-02T05:28:12.088Z,2.63
2019-02-02T05:29:18.533Z,2.71
2019-02-02T05:30:27.535Z,2.67
2019-02-02T05:31:33.769Z,2.64
2019-02-02T05:32:39.878Z,2.61
2019-02-02T05:33:46.719Z,2.66
2019-02-02T05:34:53.293Z,2.69
2019-02-02T05:35:59.438Z,2.69
2019-02-02T05:37:05.731Z,2.68
2019-02-02T05:38:11.927Z,2.68
2019-02-02T05:39:18.149Z,2.68
2019-02-02T05:40:25.199Z,2.66
2019-02-02T05:41:31.324Z,2.72
2019-02-02T05:42:37.694Z,2.69
2019-02-02T05:43:43.849Z,2.69
2019-02-02T05:44:49.673Z,2.67
2019-02-02T05:45:55.813Z,2.72
2019-02-02T05:47:01.717Z,2.67
2019-02-02T05:48:07.389Z,2.67
2019-02-02T05:49:13.660Z,2.67
2019-02-02T05:50:25.449Z,2.72
2019-02-02T05:51:31.562Z,2.71
2019-02-02T05:52:37.722Z,2.77
2019-02-02T05:53:43.617Z,2.75
2019-02-02T05:54:50.101Z,2.74
2019-02-02T05:55:56.354Z,2.77
2019-02-02T05:57:02.193Z,2.76
2019-02-02T05:58:08.338Z,2.72
2019-02-02T05:59:14.266Z,2.73
2019-02-02T06:00:34.005Z,2.73
2019-02-02T06:01:41.648Z,2.71
2019-02-02T06:02:47.801Z,2.73
2019-02-02T06:03:53.957Z,2.77
2019-02-02T06:05:00.448Z,2.76
2019-02-02T06:06:06.873Z,2.79
2019-02-02T06:07:13.212Z,2.77
2019-02-02T06:08:19.531Z,2.74
2019-02-02T06:09:25.834Z,2.75
2019-02-02T06:10:32.187Z,2.75
2019-02-02T06:11:38.272Z,2.71
2019-02-02T06:12:44.533Z,2.74
2019-02-02T06:13:50.636Z,2.76
2019-02-02T06:14:56.810Z,2.73
2019-02-02T06:16:03.308Z,2.75
2019-02-02T06:17:09.673Z,2.75
2019-02-02T06:18:15.898Z,2.81
2019-02-02T06:19:22.486Z,2.75
2019-02-02T06:20:29.695Z,2.76
2019-02-02T06:21:35.986Z,2.77
2019-02-02T06:22:42.270Z,2.77
2019-02-02T06:23:48.702Z,2.77
2019-02-02T06:24:54.920Z,2.79
2019-02-02T06:26:01.055Z,2.79
2019-02-02T06:27:07.050Z,2.78
2019-02-02T06:28:13.161Z,2.77
2019-02-02T06:29:19.252Z,2.82
2019-02-02T06:30:26.368Z,2.88
2019-02-02T06:31:32.644Z,2.82
2019-02-02T06:32:38.481Z,2.83
2019-02-02T06:33:44.822Z,2.83
2019-02-02T06:34:50.920Z,2.78
2019-02-02T06:35:57.420Z,2.83
2019-02-02T06:37:03.627Z,2.82
2019-02-02T06:38:09.822Z,2.79
2019-02-02T06:39:15.698Z,2.82
2019-02-02T06:40:21.833Z,2.84
2019-02-02T06:41:27.661Z,2.84
2019-02-02T06:42:33.633Z,2.86
2019-02-02T06:43:39.727Z,2.81
2019-02-02T06:44:46.026Z,2.82
2019-02-02T06:45:52.006Z,2.82
2019-02-02T06:46:58.060Z,2.86
2019-02-02T06:48:05.720Z,2.81
2019-02-02T06:49:12.507Z,2.74
2019-02-02T06:50:18.976Z,2.79
2019-02-02T06:51:25.415Z,2.83
2019-02-02T06:52:31.295Z,2.86
2019-02-02T06:53:37.410Z,2.88
2019-02-02T06:54:43.611Z,2.83
2019-02-02T06:55:49.718Z,2.77
2019-02-02T06:56:55.949Z,2.88
2019-02-02T06:58:01.821Z,2.87
2019-02-02T06:59:07.775Z,2.89
2019-02-02T07:00:26.556Z,2.94
2019-02-02T07:01:32.499Z,2.95
2019-02-02T07:02:38.252Z,2.96
2019-02-02T07:03:44.474Z,2.96
2019-02-02T07:04:50.585Z,2.95
2019-02-02T07:05:56.772Z,2.93
2019-02-02T07:07:02.803Z,2.94
2019-02-02T07:08:09.056Z,2.96
2019-02-02T07:09:15.457Z,2.97
2019-02-02T07:10:27.738Z,3.02
2019-02-02T07:11:33.556Z,3.06
2019-02-02T07:12:39.752Z,3.05
2019-02-02T07:13:45.933Z,3.07
2019-02-02T07:14:52.123Z,3.08
2019-02-02T07:15:58.050Z,3.13
2019-02-02T07:17:05.046Z,3.10
2019-02-02T07:18:10.989Z,3.07
2019-02-02T07:19:17.226Z,3.13
2019-02-02T07:20:23.171Z,3.11
2019-02-02T07:21:29.294Z,3.13
2019-02-02T07:22:35.446Z,3.13
2019-02-02T07:23:41.499Z,3.13
2019-02-02T07:24:50.065Z,3.14
2019-02-02T07:25:55.403Z,3.09
2019-02-02T07:27:01.683Z,3.14
2019-02-02T07:28:07.839Z,3.05
2019-02-02T07:29:14.079Z,3.07
2019-02-02T07:30:29.606Z,3.11
2019-02-02T07:31:32.732Z,3.10
2019-02-02T07:32:38.895Z,3.08
2019-02-02T07:33:45.086Z,3.10
2019-02-02T07:34:51.206Z,3.14
2019-02-02T07:35:57.313Z,3.09
2019-02-02T07:37:03.495Z,3.11
2019-02-02T07:38:09.597Z,3.13
2019-02-02T07:39:15.482Z,3.11
2019-02-02T07:40:22.085Z,3.08
2019-02-02T07:41:27.869Z,3.17
2019-02-02T07:42:33.817Z,3.20
2019-02-02T07:43:40.264Z,3.18
2019-02-02T07:44:46.509Z,3.11
2019-02-02T07:45:52.827Z,3.15
2019-02-02T07:46:59.246Z,3.19
2019-02-02T07:48:05.654Z,3.23
2019-02-02T07:49:12.019Z,3.20
2019-02-02T07:50:18.554Z,3.20
2019-02-02T07:51:24.830Z,3.18
2019-02-02T07:52:31.100Z,3.21
2019-02-02T07:53:37.371Z,3.28
2019-02-02T07:54:43.552Z,3.28
2019-02-02T07:55:49.532Z,3.25
2019-02-02T07:56:55.693Z,3.20
2019-02-02T07:58:01.854Z,3.21
2019-02-02T07:59:07.939Z,3.20
2019-02-02T08:00:39.644Z,3.19
2019-02-02T08:01:35.602Z,3.22
2019-02-02T08:02:41.754Z,3.22
2019-02-02T08:03:47.652Z,3.23
2019-02-02T08:04:53.791Z,3.28
2019-02-02T08:05:59.986Z,3.24
2019-02-02T08:07:06.207Z,3.25
2019-02-02T08:08:12.412Z,3.30
2019-02-02T08:09:18.658Z,3.32
2019-02-02T08:10:24.934Z,3.36
2019-02-02T08:11:31.228Z,3.39
2019-02-02T08:12:39.614Z,3.37
2019-02-02T08:13:45.879Z,3.42
2019-02-02T08:14:52.028Z,3.43
2019-02-02T08:15:59.582Z,3.44
2019-02-02T08:17:05.745Z,3.46
2019-02-02T08:18:11.715Z,3.46
2019-02-02T08:19:17.641Z,3.46
2019-02-02T08:20:24.339Z,3.44
2019-02-02T08:21:30.965Z,3.46
2019-02-02T08:22:37.099Z,3.46
2019-02-02T08:23:43.379Z,3.47
2019-02-02T08:24:49.337Z,3.51
2019-02-02T08:25:55.247Z,3.50
2019-02-02T08:27:01.064Z,3.48
2019-02-02T08:28:07.967Z,3.45
2019-02-02T08:29:14.160Z,3.52
2019-02-02T08:30:29.542Z,3.56
2019-02-02T08:31:35.432Z,3.56
2019-02-02T08:32:41.657Z,3.58
2019-02-02T08:33:47.963Z,3.59
2019-02-02T08:34:54.271Z,3.57
2019-02-02T08:36:03.907Z,3.50
2019-02-02T08:37:08.774Z,3.53
2019-02-02T08:38:14.968Z,3.60
2019-02-02T08:39:28.858Z,3.67
2019-02-02T08:40:29.014Z,3.65
2019-02-02T08:41:35.171Z,3.67
2019-02-02T08:42:41.415Z,3.65
2019-02-02T08:43:47.807Z,3.63
2019-02-02T08:44:54.055Z,3.68
2019-02-02T08:46:00.433Z,3.69
2019-02-02T08:47:06.521Z,3.70
2019-02-02T08:48:12.697Z,3.70
2019-02-02T08:49:18.781Z,3.65
2019-02-02T08:50:28.945Z,3.76
2019-02-02T08:51:35.211Z,3.74
2019-02-02T08:52:41.798Z,3.69
2019-02-02T08:53:48.035Z,3.68
2019-02-02T08:54:54.472Z,3.73
2019-02-02T08:56:00.471Z,3.75
2019-02-02T08:57:06.670Z,3.69
2019-02-02T08:58:12.924Z,3.69
2019-02-02T08:59:19.195Z,3.77
2019-02-02T09:00:25.435Z,3.82
2019-02-02T09:01:32.029Z,3.80
2019-02-02T09:02:38.196Z,3.75
2019-02-02T09:03:44.490Z,3.83
2019-02-02T09:04:50.751Z,3.77
2019-02-02T09:05:56.713Z,3.79
2019-02-02T09:07:02.637Z,3.77
2019-02-02T09:08:08.749Z,3.75
2019-02-02T09:09:15.039Z,3.81
2019-02-02T09:10:24.395Z,3.73
2019-02-02T09:11:31.325Z,3.72
2019-02-02T09:12:37.548Z,3.66
2019-02-02T09:13:43.519Z,3.68
2019-02-02T09:14:49.584Z,3.69
2019-02-02T09:15:55.953Z,3.73
2019-02-02T09:17:02.113Z,3.73
2019-02-02T09:18:08.563Z,3.77
2019-02-02T09:19:14.672Z,3.78
2019-02-02T09:20:20.827Z,3.80
2019-02-02T09:21:27.052Z,3.87
2019-02-02T09:22:33.157Z,3.80
2019-02-02T09:23:39.359Z,3.86
2019-02-02T09:24:45.566Z,3.83
2019-02-02T09:25:52.220Z,3.80
2019-02-02T09:26:58.574Z,3.81
2019-02-02T09:28:05.854Z,3.86
2019-02-02T09:29:11.979Z,3.87
2019-02-02T09:30:29.869Z,3.94
2019-02-02T09:31:35.969Z,3.82
2019-02-02T09:32:42.083Z,3.82
2019-02-02T09:33:48.172Z,3.87
2019-02-02T09:34:54.526Z,3.84
2019-02-02T09:36:00.874Z,3.95
2019-02-02T09:37:07.028Z,3.99
2019-02-02T09:38:13.136Z,3.92
2019-02-02T09:39:19.476Z,3.92
2019-02-02T09:40:26.770Z,3.97
2019-02-02T09:41:33.181Z,3.98
2019-02-02T09:42:39.566Z,3.97
2019-02-02T09:43:45.674Z,3.95
2019-02-02T09:44:51.835Z,3.98
2019-02-02T09:45:57.961Z,4.03
2019-02-02T09:47:04.290Z,4.03
2019-02-02T09:48:12.349Z,3.97
2019-02-02T09:49:18.788Z,3.93
2019-02-02T09:50:26.392Z,3.96
2019-02-02T09:51:32.614Z,3.95
2019-02-02T09:52:38.716Z,3.95
2019-02-02T09:53:44.870Z,3.96
2019-02-02T09:54:50.980Z,3.91
2019-02-02T09:55:57.336Z,3.95
2019-02-02T09:57:03.539Z,3.96
2019-02-02T09:58:10.248Z,3.93
2019-02-02T09:59:16.325Z,3.89
2019-02-02T10:00:29.358Z,3.93
2019-02-02T10:01:35.600Z,4.01
2019-02-02T10:02:41.911Z,4.03
2019-02-02T10:03:48.012Z,4.06
2019-02-02T10:04:54.185Z,4.03
2019-02-02T10:06:00.395Z,4.03
2019-02-02T10:07:06.665Z,4.14
2019-02-02T10:08:12.834Z,4.12
2019-02-02T10:09:18.931Z,4.16
2019-02-02T10:10:33.940Z,4.20
2019-02-02T10:11:40.601Z,4.13
2019-02-02T10:12:46.743Z,4.10
2019-02-02T10:13:53.014Z,4.08
2019-02-02T10:14:59.260Z,4.16
2019-02-02T10:16:05.627Z,4.22
2019-02-02T10:17:11.923Z,4.19
2019-02-02T10:18:18.162Z,4.22
2019-02-02T10:19:24.430Z,4.24
2019-02-02T10:20:32.654Z,4.23
2019-02-02T10:21:39.088Z,4.17
2019-02-02T10:22:45.322Z,4.13
2019-02-02T10:23:51.613Z,4.14
2019-02-02T10:24:57.582Z,4.18
2019-02-02T10:26:03.519Z,4.26
2019-02-02T10:27:09.566Z,4.25
2019-02-02T10:28:15.650Z,4.27
2019-02-02T10:29:21.576Z,4.34
2019-02-02T10:30:37.812Z,4.35
2019-02-02T10:31:43.921Z,4.36
2019-02-02T10:32:50.104Z,4.34
2019-02-02T10:33:56.308Z,4.31
2019-02-02T10:35:02.134Z,4.32
2019-02-02T10:36:08.131Z,4.31
2019-02-02T10:37:14.235Z,4.41
2019-02-02T10:38:20.447Z,4.50
2019-02-02T10:39:26.613Z,4.55
2019-02-02T10:40:32.964Z,4.65
2019-02-02T10:41:39.297Z,4.64
2019-02-02T10:42:45.205Z,4.74
2019-02-02T10:43:51.369Z,4.77
2019-02-02T10:44:57.643Z,4.93
2019-02-02T10:46:03.881Z,5.07
2019-02-02T10:47:10.240Z,5.05
2019-02-02T10:48:16.715Z,5.01
2019-02-02T10:49:22.799Z,5.01
2019-02-02T10:50:29.009Z,5.03
2019-02-02T10:51:35.283Z,5.09
2019-02-02T10:52:41.608Z,5.02
2019-02-02T10:53:47.705Z,5.09
2019-02-02T10:54:53.870Z,5.03
2019-02-02T10:55:59.995Z,5.05
2019-02-02T10:57:06.451Z,5.03
2019-02-02T10:58:12.621Z,5.05
2019-02-02T10:59:18.989Z,5.05
2019-02-02T11:00:32.419Z,5.04
2019-02-02T11:01:50.460Z,4.97
2019-02-02T11:02:46.656Z,5.01
2019-02-02T11:03:52.844Z,4.97
2019-02-02T11:04:59.322Z,4.93
2019-02-02T11:06:05.645Z,5.03
2019-02-02T11:07:12.104Z,4.93
2019-02-02T11:08:18.172Z,4.94
2019-02-02T11:13:57.563Z,4.74
2019-02-02T11:15:11.060Z,4.64
2019-02-02T11:16:17.035Z,4.61
2019-02-02T11:17:23.405Z,4.57
2019-02-02T11:18:29.754Z,4.65
2019-02-02T11:19:35.889Z,4.61
2019-02-02T11:20:41.554Z,4.65
2019-02-02T11:21:47.704Z,4.68
2019-02-02T11:22:53.739Z,4.75
2019-02-02T11:23:59.632Z,4.74
2019-02-02T11:25:09.706Z,4.68
2019-02-02T11:26:16.080Z,4.70
2019-02-02T11:27:22.658Z,4.64
2019-02-02T11:28:29.005Z,4.70
2019-02-02T11:29:35.341Z,4.65
2019-02-02T11:30:41.628Z,4.58
2019-02-02T11:31:47.593Z,4.67
2019-02-02T11:32:53.263Z,4.65
2019-02-02T11:33:59.347Z,4.66
2019-02-02T11:35:12.859Z,4.69
2019-02-02T11:36:18.728Z,4.69
2019-02-02T11:37:24.659Z,4.64
2019-02-02T11:38:30.910Z,4.65
2019-02-02T11:39:37.009Z,4.62
2019-02-02T11:40:42.834Z,4.60
2019-02-02T11:41:48.835Z,4.64
2019-02-02T11:42:54.829Z,4.68
2019-02-02T11:44:01.947Z,4.70
2019-02-02T11:45:12.467Z,4.67
2019-02-02T11:46:18.714Z,4.68
2019-02-02T11:47:24.558Z,4.65
2019-02-02T11:48:30.503Z,4.63
2019-02-02T11:49:36.466Z,4.72
2019-02-02T11:50:42.457Z,4.65
2019-02-02T11:51:48.494Z,4.69
2019-02-02T11:52:54.172Z,4.76
2019-02-02T11:54:00.172Z,4.74
2019-02-02T11:55:10.925Z,4.77
2019-02-02T11:56:17.234Z,4.77
2019-02-02T11:57:23.054Z,4.68
2019-02-02T11:58:28.994Z,4.69
2019-02-02T11:59:35.107Z,4.74
2019-02-02T12:00:43.609Z,4.72
2019-02-02T12:01:49.898Z,4.72
2019-02-02T12:02:55.671Z,4.67
2019-02-02T12:04:01.807Z,4.66
2019-02-02T12:05:09.140Z,4.74
2019-02-02T12:06:15.312Z,4.73
2019-02-02T12:07:21.337Z,4.74
2019-02-02T12:08:27.160Z,4.78
2019-02-02T12:09:33.096Z,4.75
2019-02-02T12:10:40.622Z,4.70
2019-02-02T12:11:46.552Z,4.69
2019-02-02T12:12:52.419Z,4.70
2019-02-02T12:13:58.257Z,4.59
2019-02-02T12:15:05.906Z,4.64
2019-02-02T12:16:11.663Z,4.56
2019-02-02T12:17:17.524Z,4.69
2019-02-02T12:18:23.692Z,4.74
2019-02-02T12:19:30.045Z,4.60
2019-02-02T12:20:35.919Z,4.68
2019-02-02T12:21:42.061Z,4.66
2019-02-02T12:22:48.023Z,4.58
2019-02-02T12:23:54.249Z,4.59
2019-02-02T12:25:01.884Z,4.61
2019-02-02T12:26:11.258Z,4.61
2019-02-02T12:27:17.442Z,4.62
2019-02-02T12:28:23.675Z,4.67
2019-02-02T12:29:29.777Z,4.61
2019-02-02T12:30:36.413Z,4.62
2019-02-02T12:31:42.278Z,4.60
2019-02-02T12:32:48.067Z,4.60
2019-02-02T12:33:54.061Z,4.56
2019-02-02T12:35:00.427Z,4.59
2019-02-02T12:36:06.590Z,4.60
2019-02-02T12:37:12.773Z,4.67
2019-02-02T12:38:19.026Z,4.66
2019-02-02T12:39:25.209Z,4.67
2019-02-02T12:40:31.560Z,4.68
2019-02-02T12:41:37.783Z,4.71
2019-02-02T12:42:45.562Z,4.68
2019-02-02T12:43:51.510Z,4.74
2019-02-02T12:44:58.584Z,4.71
2019-02-02T12:46:05.871Z,4.76
2019-02-02T12:47:11.826Z,4.77
2019-02-02T12:48:17.759Z,4.75
2019-02-02T12:49:23.871Z,4.70
2019-02-02T12:50:29.971Z,4.69
2019-02-02T12:51:36.136Z,4.65
2019-02-02T12:52:42.394Z,4.59
2019-02-02T12:53:48.709Z,4.67
2019-02-02T12:54:55.151Z,4.72
2019-02-02T12:56:01.342Z,4.67
2019-02-02T12:57:07.827Z,4.67
2019-02-02T12:58:13.675Z,4.72
2019-02-02T12:59:19.626Z,4.68
2019-02-02T13:00:25.754Z,4.77
2019-02-02T13:01:31.924Z,4.75
2019-02-02T13:02:38.563Z,4.72
2019-02-02T13:03:44.858Z,4.75
2019-02-02T13:04:51.218Z,4.68
2019-02-02T13:05:57.366Z,4.65
2019-02-02T13:07:03.540Z,4.67
2019-02-02T13:08:09.572Z,4.73
2019-02-02T13:09:15.597Z,4.71
2019-02-02T13:10:29.434Z,4.72
2019-02-02T13:11:35.812Z,4.81
2019-02-02T13:12:41.978Z,4.74
2019-02-02T13:13:48.174Z,4.74
2019-02-02T13:14:54.367Z,4.67
2019-02-02T13:16:00.462Z,4.72
2019-02-02T13:17:07.897Z,4.77
2019-02-02T13:18:14.012Z,4.77
2019-02-02T13:19:20.154Z,4.78
2019-02-02T13:20:26.679Z,4.74
2019-02-02T13:21:32.770Z,4.69
2019-02-02T13:22:38.796Z,4.66
2019-02-02T13:23:44.753Z,4.76
2019-02-02T13:24:50.942Z,4.76
2019-02-02T13:26:05.159Z,4.80
2019-02-02T13:27:05.870Z,4.76
2019-02-02T13:28:12.020Z,4.82
2019-02-02T13:29:17.871Z,4.84
2019-02-02T13:30:26.468Z,4.76
2019-02-02T13:31:32.402Z,4.85
2019-02-02T13:32:49.155Z,4.94
2019-02-02T13:33:46.505Z,4.95
2019-02-02T13:34:52.610Z,4.96
2019-02-02T13:35:58.795Z,4.99
2019-02-02T13:37:05.646Z,5.08
2019-02-02T13:38:11.788Z,5.10
2019-02-02T13:39:17.726Z,5.06
2019-02-02T13:40:24.794Z,5.12
2019-02-02T13:41:31.172Z,5.15
2019-02-02T13:42:37.642Z,5.17
2019-02-02T13:43:43.773Z,5.20
2019-02-02T13:44:49.936Z,5.20
2019-02-02T13:45:56.170Z,5.26
2019-02-02T13:47:02.557Z,5.23
2019-02-02T13:48:08.654Z,5.24
2019-02-02T13:49:14.889Z,5.17
2019-02-02T13:50:20.772Z,5.17
2019-02-02T13:51:26.855Z,5.20
2019-02-02T13:52:33.099Z,5.22
2019-02-02T13:53:38.901Z,5.23
2019-02-02T13:54:44.597Z,5.25
2019-02-02T13:55:50.821Z,5.19
2019-02-02T13:56:56.985Z,5.16
2019-02-02T13:58:03.103Z,5.14
2019-02-02T13:59:09.436Z,5.21
2019-02-02T14:00:20.709Z,5.19
2019-02-02T14:01:27.348Z,5.24
2019-02-02T14:02:33.814Z,5.26
2019-02-02T14:03:39.797Z,5.30
2019-02-02T14:04:45.491Z,5.32
2019-02-02T14:05:51.662Z,5.26
2019-02-02T14:06:58.009Z,5.22
2019-02-02T14:08:04.291Z,5.17
2019-02-02T14:09:10.569Z,5.27
2019-02-02T14:10:23.814Z,5.27
2019-02-02T14:11:30.036Z,5.24
2019-02-02T14:12:36.318Z,5.22
2019-02-02T14:13:42.587Z,5.25
2019-02-02T14:14:48.774Z,5.25
2019-02-02T14:15:55.049Z,5.24
2019-02-02T14:17:01.281Z,5.11
2019-02-02T14:18:07.394Z,5.17
2019-02-02T14:19:13.771Z,5.17
2019-02-02T14:20:20.759Z,5.22
2019-02-02T14:21:27.038Z,5.21
2019-02-02T14:22:33.171Z,5.01
2019-02-02T14:23:39.137Z,5.07
2019-02-02T14:24:45.087Z,5.05
2019-02-02T14:25:51.075Z,4.94
2019-02-02T14:26:57.223Z,4.92
2019-02-02T14:28:03.549Z,4.80
2019-02-02T14:29:09.858Z,4.77
2019-02-02T14:30:26.795Z,4.85
2019-02-02T14:31:32.646Z,4.88
2019-02-02T14:32:38.854Z,4.85
2019-02-02T14:33:44.968Z,4.79
2019-02-02T14:34:51.179Z,4.81
2019-02-02T14:35:57.075Z,4.82
2019-02-02T14:37:02.850Z,4.85
2019-02-02T14:38:08.553Z,4.78
2019-02-02T14:39:14.532Z,4.81
2019-02-02T14:40:21.897Z,4.77
2019-02-02T14:41:28.173Z,4.78
2019-02-02T14:42:34.473Z,4.81
2019-02-02T14:43:40.879Z,4.59
2019-02-02T14:44:47.246Z,4.59
2019-02-02T14:45:53.393Z,4.65
2019-02-02T14:46:59.777Z,4.67
2019-02-02T14:48:05.915Z,4.61
2019-02-02T14:49:11.844Z,4.60
2019-02-02T14:50:19.471Z,4.52
2019-02-02T14:51:25.613Z,4.47